Time;durP1;ratioP1;P1;durP2;ratioP2;P2;SDS_P1;SDS_P2;PMS_P1;PMS_P2;Temp;Humidity;BMP_temperature;BMP_pressure;BME280_temperature;BME280_humidity;BME280_pressure;Samples;Min_cycle;Max_cycle;Signal;HPM_P1;HPM_P2
2021/10/01 00:01:34;;;;;;;4.57;2.50;;;10.60;99.90;;;;;;5053260;28;20201;-57
2021/10/01 00:04:01;;;;;;;4.80;2.43;;;10.70;99.90;;;;;;5052819;28;20287;-55
2021/10/01 00:06:26;;;;;;;3.00;1.90;;;10.70;99.90;;;;;;5053516;28;20539;-54
2021/10/01 00:08:52;;;;;;;2.60;2.00;;;10.80;99.90;;;;;;5053801;28;20661;-57
2021/10/01 00:11:18;;;;;;;2.80;2.20;;;10.70;99.90;;;;;;5053274;28;20215;-55
2021/10/01 00:13:44;;;;;;;4.40;2.10;;;10.60;99.90;;;;;;5053499;28;20172;-57
2021/10/01 00:16:10;;;;;;;2.80;2.30;;;10.60;99.90;;;;;;5052207;28;20423;-57
2021/10/01 00:18:37;;;;;;;4.07;2.40;;;10.60;99.90;;;;;;5052966;28;20212;-57
2021/10/01 00:21:03;;;;;;;2.20;1.80;;;10.60;99.90;;;;;;5053325;28;20612;-57
2021/10/01 00:23:29;;;;;;;3.37;2.20;;;10.50;99.90;;;;;;5052306;28;20512;-58
2021/10/01 00:25:55;;;;;;;2.70;1.90;;;10.50;99.90;;;;;;5053029;28;20458;-58
2021/10/01 00:28:20;;;;;;;3.03;1.90;;;10.50;99.90;;;;;;5053186;28;20249;-57
2021/10/01 00:30:46;;;;;;;2.10;1.90;;;10.50;99.90;;;;;;5052789;28;20642;-57
2021/10/01 00:33:11;;;;;;;2.80;2.20;;;10.50;99.90;;;;;;5053621;28;20643;-57
2021/10/01 00:35:37;;;;;;;2.40;1.87;;;10.50;99.90;;;;;;5052859;28;20172;-54
2021/10/01 00:38:03;;;;;;;2.40;1.70;;;10.50;99.90;;;;;;5053035;28;20195;-54
2021/10/01 00:40:28;;;;;;;2.10;1.77;;;10.50;99.90;;;;;;5052840;28;20192;-54
2021/10/01 00:42:54;;;;;;;2.90;1.90;;;10.50;99.90;;;;;;5051672;28;20213;-57
2021/10/01 00:45:19;;;;;;;2.00;1.70;;;10.50;99.90;;;;;;5053379;28;20260;-54
2021/10/01 00:47:45;;;;;;;4.07;1.93;;;10.50;99.90;;;;;;5052972;28;20169;-57
2021/10/01 00:50:11;;;;;;;2.90;2.10;;;10.40;99.90;;;;;;5052470;28;20688;-57
2021/10/01 00:52:36;;;;;;;3.10;1.80;;;10.50;99.90;;;;;;5052580;28;20200;-57
2021/10/01 00:55:03;;;;;;;2.37;1.70;;;10.50;99.90;;;;;;5046065;28;20589;-58
2021/10/01 00:57:29;;;;;;;2.47;1.87;;;10.40;99.90;;;;;;5032775;28;20192;-57
2021/10/01 00:59:54;;;;;;;2.50;2.13;;;10.40;99.90;;;;;;5035259;28;20923;-55
2021/10/01 01:02:20;;;;;;;2.13;1.87;;;10.40;99.90;;;;;;5042982;28;20201;-56
2021/10/01 01:04:47;;;;;;;3.00;1.90;;;10.30;99.90;;;;;;5052759;28;20679;-57
2021/10/01 01:07:42;;;;;;;2.60;1.70;;;10.40;99.90;;;;;;5053033;28;20228;-55
2021/10/01 01:10:21;;;;;;;2.63;1.73;;;10.40;99.90;;;;;;5051843;28;20918;-58
2021/10/01 01:12:50;;;;;;;1.73;1.40;;;10.30;99.90;;;;;;5052279;28;20455;-57
2021/10/01 01:15:21;;;;;;;2.93;1.43;;;10.20;99.90;;;;;;5052349;28;20410;-57
2021/10/01 01:17:58;;;;;;;2.30;1.47;;;10.20;99.90;;;;;;5052393;28;20424;-57
2021/10/01 01:20:28;;;;;;;2.03;1.47;;;10.20;99.90;;;;;;5052299;28;20438;-58
2021/10/01 01:23:22;;;;;;;1.77;1.50;;;10.20;99.90;;;;;;5052437;28;20436;-56
2021/10/01 01:26:13;;;;;;;2.53;1.73;;;10.30;99.90;;;;;;5052370;28;20391;-54
2021/10/01 01:28:50;;;;;;;1.60;1.33;;;10.30;99.90;;;;;;5051634;28;20393;-56
2021/10/01 01:31:41;;;;;;;1.80;1.50;;;10.30;99.90;;;;;;5052372;28;20514;-57
2021/10/01 01:34:09;;;;;;;1.40;1.30;;;10.30;99.90;;;;;;5052629;28;20397;-58
2021/10/01 01:36:35;;;;;;;3.77;2.00;;;10.30;99.90;;;;;;5052605;28;20415;-58
2021/10/01 01:39:04;;;;;;;1.50;1.40;;;10.20;99.90;;;;;;5053242;28;20415;-55
2021/10/01 01:41:31;;;;;;;1.63;1.50;;;10.20;99.90;;;;;;5052154;28;20458;-58
2021/10/01 01:43:59;;;;;;;2.47;1.50;;;10.20;99.90;;;;;;5053156;28;20404;-57
2021/10/01 01:46:25;;;;;;;2.37;1.93;;;10.20;99.90;;;;;;5052497;28;20799;-57
2021/10/01 01:48:52;;;;;;;4.20;1.60;;;10.20;99.90;;;;;;5052907;28;20481;-56
2021/10/01 01:51:18;;;;;;;1.97;1.60;;;10.10;99.90;;;;;;5050798;28;20467;-55
2021/10/01 01:53:45;;;;;;;1.30;1.20;;;10.10;99.90;;;;;;5052479;28;20468;-58
2021/10/01 01:56:11;;;;;;;2.23;2.03;;;10.10;99.90;;;;;;5052627;28;20744;-58
2021/10/01 01:58:38;;;;;;;2.00;1.40;;;10.00;99.90;;;;;;5052439;28;20482;-50
2021/10/01 02:01:05;;;;;;;3.57;1.90;;;10.00;99.90;;;;;;5052453;28;20484;-58
2021/10/01 02:03:33;;;;;;;2.30;1.40;;;10.10;99.90;;;;;;5051900;28;20407;-57
2021/10/01 02:06:00;;;;;;;2.23;1.33;;;10.10;99.90;;;;;;5032317;28;20463;-58
2021/10/01 02:08:28;;;;;;;2.30;1.70;;;10.10;99.90;;;;;;5031374;28;20928;-58
2021/10/01 02:10:54;;;;;;;2.37;1.50;;;10.00;99.90;;;;;;5032270;28;20430;-56
2021/10/01 02:13:21;;;;;;;2.80;1.47;;;9.90;99.90;;;;;;5032443;28;20384;-58
2021/10/01 02:15:52;;;;;;;4.40;1.63;;;9.80;99.90;;;;;;5032115;28;20500;-58
2021/10/01 02:18:20;;;;;;;2.60;1.50;;;9.80;99.90;;;;;;5032404;28;20430;-58
2021/10/01 02:20:48;;;;;;;2.97;1.73;;;9.80;99.90;;;;;;5033930;28;20520;-56
2021/10/01 02:23:13;;;;;;;2.23;1.47;;;9.80;99.90;;;;;;5036335;28;20445;-58
2021/10/01 02:28:32;;;;;;;5.10;1.73;;;9.90;99.90;;;;;;5036179;28;20198;-53
2021/10/01 02:31:00;;;;;;;2.70;1.73;;;9.80;99.90;;;;;;5034218;28;20963;-54
2021/10/01 02:33:41;;;;;;;2.40;1.80;;;9.90;99.90;;;;;;5035473;28;20412;-54
2021/10/01 02:36:07;;;;;;;1.97;1.60;;;10.00;99.90;;;;;;5033720;28;20410;-58
2021/10/01 02:38:33;;;;;;;2.73;1.60;;;10.00;99.90;;;;;;5035490;28;20411;-53
2021/10/01 02:40:59;;;;;;;2.60;1.57;;;9.90;99.90;;;;;;5034895;28;20480;-57
2021/10/01 02:43:24;;;;;;;1.50;1.40;;;9.90;99.90;;;;;;5035206;28;20250;-62
2021/10/01 02:45:50;;;;;;;2.30;1.30;;;10.00;99.90;;;;;;5050246;28;20234;-58
2021/10/01 02:48:16;;;;;;;2.50;1.50;;;10.00;99.90;;;;;;5040184;28;20185;-57
2021/10/01 02:50:46;;;;;;;2.33;1.40;;;10.00;99.90;;;;;;5035620;28;20208;-58
2021/10/01 02:53:30;;;;;;;4.57;2.00;;;9.90;99.90;;;;;;5035174;28;20395;-54
2021/10/01 02:56:09;;;;;;;8.33;1.40;;;9.90;99.90;;;;;;5036962;28;20458;-55
2021/10/01 02:58:47;;;;;;;3.47;1.67;;;9.90;99.90;;;;;;5045568;28;20471;-58
2021/10/01 03:01:15;;;;;;;2.50;1.40;;;9.90;99.90;;;;;;5055296;28;20457;-56
2021/10/01 03:03:44;;;;;;;2.63;1.47;;;9.80;99.90;;;;;;5053744;28;20422;-58
2021/10/01 03:06:12;;;;;;;2.23;1.43;;;9.80;99.90;;;;;;5054881;28;20413;-56
2021/10/01 03:08:38;;;;;;;2.63;1.40;;;9.70;99.90;;;;;;5054762;28;20488;-53
2021/10/01 03:11:10;;;;;;;4.30;1.50;;;9.80;99.90;;;;;;5053749;28;20460;-56
2021/10/01 03:13:39;;;;;;;2.70;1.63;;;9.80;99.90;;;;;;5054917;28;20840;-58
2021/10/01 03:16:05;;;;;;;1.90;1.50;;;9.80;99.90;;;;;;5054298;28;20418;-58
2021/10/01 03:18:33;;;;;;;2.53;1.63;;;9.80;99.90;;;;;;5054925;28;20719;-58
2021/10/01 03:21:01;;;;;;;2.17;1.27;;;9.80;99.90;;;;;;5054101;28;20511;-58
2021/10/01 03:23:27;;;;;;;2.33;1.57;;;9.80;99.90;;;;;;5054744;28;20413;-58
2021/10/01 03:25:54;;;;;;;1.97;1.20;;;9.80;99.90;;;;;;5053319;28;20426;-56
2021/10/01 03:28:21;;;;;;;2.53;1.30;;;9.90;99.90;;;;;;5054418;28;20582;-57
2021/10/01 03:30:47;;;;;;;3.43;1.93;;;9.80;99.90;;;;;;5054450;28;20509;-58
2021/10/01 03:33:14;;;;;;;1.47;1.37;;;9.80;99.90;;;;;;5053656;28;20407;-55
2021/10/01 03:35:42;;;;;;;2.90;1.63;;;9.80;99.90;;;;;;5053038;28;20436;-56
2021/10/01 03:38:14;;;;;;;4.30;1.50;;;9.80;99.90;;;;;;5054630;28;20419;-58
2021/10/01 03:40:43;;;;;;;2.03;1.83;;;9.90;99.90;;;;;;5054072;28;20515;-58
2021/10/01 03:43:18;;;;;;;1.77;1.63;;;9.90;99.90;;;;;;5053231;28;20432;-56
2021/10/01 03:45:44;;;;;;;2.43;1.80;;;9.90;99.90;;;;;;5054823;28;20742;-57
2021/10/01 03:48:10;;;;;;;4.40;1.60;;;9.90;99.90;;;;;;5053972;28;20407;-57
2021/10/01 03:50:37;;;;;;;2.13;1.63;;;9.80;99.90;;;;;;5053252;28;20426;-56
2021/10/01 03:53:04;;;;;;;1.90;1.50;;;9.70;99.90;;;;;;5053855;28;20442;-54
2021/10/01 03:55:31;;;;;;;2.93;1.60;;;9.70;99.90;;;;;;5053989;28;20776;-57
2021/10/01 03:57:57;;;;;;;2.20;1.47;;;9.80;99.90;;;;;;5052599;28;20921;-57
2021/10/01 04:00:22;;;;;;;2.70;1.67;;;9.80;99.90;;;;;;5053599;28;20545;-56
2021/10/01 04:02:48;;;;;;;2.70;1.60;;;9.80;99.90;;;;;;5052373;28;20298;-55
2021/10/01 04:05:16;;;;;;;2.30;1.70;;;9.80;99.90;;;;;;5054463;28;20646;-55
2021/10/01 04:07:42;;;;;;;3.00;1.57;;;9.70;99.90;;;;;;5053646;28;20198;-56
2021/10/01 04:10:07;;;;;;;2.10;1.77;;;9.70;99.90;;;;;;5053913;28;20409;-55
2021/10/01 04:12:33;;;;;;;3.47;1.67;;;9.70;99.90;;;;;;5063723;22;20226;-56
2021/10/01 04:14:59;;;;;;;1.63;1.50;;;9.70;99.90;;;;;;5034242;28;20209;-54
2021/10/01 04:17:25;;;;;;;3.00;2.07;;;9.60;99.90;;;;;;5032995;28;20817;-54
2021/10/01 04:19:51;;;;;;;1.60;1.50;;;9.60;99.90;;;;;;5034387;28;20457;-52
2021/10/01 04:22:17;;;;;;;2.60;2.10;;;9.60;99.90;;;;;;5033216;28;20199;-55
2021/10/01 04:24:43;;;;;;;1.70;1.60;;;9.60;99.90;;;;;;5034280;28;20180;-54
2021/10/01 04:27:09;;;;;;;2.00;1.37;;;9.60;99.90;;;;;;5034372;28;20398;-53
2021/10/01 04:29:35;;;;;;;1.90;1.80;;;9.50;99.90;;;;;;5034472;28;20203;-53
2021/10/01 04:32:03;;;;;;;2.63;1.60;;;9.60;99.90;;;;;;5032830;28;20541;-56
2021/10/01 04:34:33;;;;;;;1.73;1.60;;;9.60;99.90;;;;;;5034646;28;20403;-53
2021/10/01 04:36:58;;;;;;;3.67;1.80;;;9.60;99.90;;;;;;5034884;28;20398;-53
2021/10/01 04:39:24;;;;;;;1.60;1.50;;;9.60;99.90;;;;;;5034141;28;20415;-53
2021/10/01 04:41:49;;;;;;;4.17;2.37;;;9.60;99.90;;;;;;5033937;28;20181;-57
2021/10/01 04:44:15;;;;;;;3.43;2.20;;;9.50;99.90;;;;;;5033337;28;20177;-55
2021/10/01 04:46:41;;;;;;;6.80;2.37;;;9.50;99.90;;;;;;5025392;28;20623;-56
2021/10/01 04:49:06;;;;;;;3.20;2.30;;;9.50;99.90;;;;;;5014337;28;20537;-54
2021/10/01 04:51:32;;;;;;;3.90;2.00;;;9.40;99.90;;;;;;5019774;28;20224;-57
2021/10/01 04:53:58;;;;;;;2.67;2.10;;;9.50;99.90;;;;;;5033629;28;20663;-54
2021/10/01 04:56:23;;;;;;;5.10;2.47;;;9.50;99.90;;;;;;5034062;28;20292;-56
2021/10/01 04:58:50;;;;;;;3.20;1.83;;;9.50;99.90;;;;;;5034115;28;20211;-53
2021/10/01 05:01:15;;;;;;;3.23;2.10;;;9.40;99.90;;;;;;5031962;28;20200;-53
2021/10/01 05:03:41;;;;;;;2.77;2.20;;;9.50;99.90;;;;;;5033671;28;20407;-55
2021/10/01 05:06:06;;;;;;;1.90;1.73;;;9.50;99.90;;;;;;5033534;28;20246;-54
2021/10/01 05:08:32;;;;;;;2.77;2.00;;;9.40;99.90;;;;;;5034466;28;20198;-54
2021/10/01 05:10:58;;;;;;;3.50;2.10;;;9.40;99.90;;;;;;5034145;28;20174;-53
2021/10/01 05:13:24;;;;;;;2.43;1.80;;;9.50;99.90;;;;;;5034289;28;20237;-53
2021/10/01 05:15:50;;;;;;;3.17;2.30;;;9.40;99.90;;;;;;5037808;28;20555;-56
2021/10/01 05:18:17;;;;;;;2.13;1.93;;;9.40;99.90;;;;;;5037728;28;20414;-57
2021/10/01 05:20:43;;;;;;;2.10;1.90;;;9.50;99.90;;;;;;5035117;28;20447;-53
2021/10/01 05:23:09;;;;;;;2.47;2.27;;;9.40;99.90;;;;;;5033478;28;20533;-57
2021/10/01 05:25:35;;;;;;;2.40;2.00;;;9.50;99.90;;;;;;5033130;28;20435;-58
2021/10/01 05:28:00;;;;;;;3.80;2.30;;;9.40;99.90;;;;;;5032899;28;20199;-58
2021/10/01 05:30:26;;;;;;;2.97;2.10;;;9.40;99.90;;;;;;5032812;28;20422;-58
2021/10/01 05:32:52;;;;;;;2.77;2.37;;;9.40;99.90;;;;;;5032753;28;20270;-57
2021/10/01 05:35:18;;;;;;;2.73;2.10;;;9.40;99.90;;;;;;5033490;28;20402;-57
2021/10/01 05:37:45;;;;;;;2.60;2.40;;;9.40;99.90;;;;;;5029749;28;20177;-57
2021/10/01 05:40:12;;;;;;;3.00;1.77;;;9.40;99.90;;;;;;5019595;28;20287;-53
2021/10/01 05:42:38;;;;;;;4.50;2.47;;;9.40;99.90;;;;;;5032854;28;20425;-57
2021/10/01 05:45:06;;;;;;;1.87;1.77;;;9.40;99.90;;;;;;5032950;28;20536;-58
2021/10/01 05:47:32;;;;;;;2.77;2.20;;;9.50;99.90;;;;;;5032967;28;20174;-55
2021/10/01 05:50:03;;;;;;;3.47;2.67;;;9.50;99.90;;;;;;5032822;28;20428;-57
2021/10/01 05:54:57;;;;;;;1.90;1.73;;;9.40;99.90;;;;;;5033665;28;20406;-55
2021/10/01 05:57:23;;;;;;;9.40;8.40;;;9.50;99.90;;;;;;5035364;28;20522;-58
2021/10/01 05:59:49;;;;;;;3.30;2.60;;;9.50;99.90;;;;;;5036355;28;20676;-53
2021/10/01 06:02:17;;;;;;;2.33;1.70;;;9.50;99.90;;;;;;5036286;28;20183;-58
2021/10/01 06:04:44;;;;;;;3.53;2.50;;;9.50;99.90;;;;;;5036897;28;20443;-57
2021/10/01 06:07:11;;;;;;;2.53;1.97;;;9.60;99.90;;;;;;5036440;28;20424;-58
2021/10/01 06:09:44;;;;;;;3.23;2.00;;;9.60;99.90;;;;;;5036405;28;20411;-58
2021/10/01 06:12:11;;;;;;;3.70;2.00;;;9.60;99.90;;;;;;5035996;28;20512;-56
2021/10/01 06:14:37;;;;;;;3.60;2.43;;;9.60;99.90;;;;;;5035933;28;20406;-57
2021/10/01 06:17:04;;;;;;;5.43;2.40;;;9.70;99.90;;;;;;5034978;28;20415;-58
2021/10/01 06:19:32;;;;;;;2.07;1.70;;;9.70;99.90;;;;;;5036231;28;20424;-58
2021/10/01 06:21:58;;;;;;;3.00;1.90;;;9.70;99.90;;;;;;5036189;28;20420;-58
2021/10/01 06:24:23;;;;;;;2.37;2.10;;;9.80;99.90;;;;;;5036449;28;20945;-56
2021/10/01 06:26:49;;;;;;;3.07;2.77;;;9.90;99.90;;;;;;5034824;28;20514;-58
2021/10/01 06:29:16;;;;;;;3.57;3.27;;;9.90;99.90;;;;;;5035666;28;20190;-57
2021/10/01 06:31:42;;;;;;;3.60;2.30;;;10.00;99.90;;;;;;5036012;28;20209;-57
2021/10/01 06:34:08;;;;;;;3.50;2.90;;;10.00;99.90;;;;;;5036072;28;20433;-57
2021/10/01 06:36:34;;;;;;;4.30;2.50;;;9.90;99.90;;;;;;5034993;28;20436;-56
2021/10/01 06:38:59;;;;;;;3.70;3.37;;;10.00;99.90;;;;;;5036036;28;20308;-59
2021/10/01 06:41:25;;;;;;;3.63;3.10;;;10.00;99.90;;;;;;5035990;28;20221;-59
2021/10/01 06:43:58;;;;;;;5.37;3.80;;;10.10;99.90;;;;;;5035538;28;20168;-51
2021/10/01 06:49:14;;;;;;;4.73;2.93;;;10.20;99.90;;;;;;5015773;28;20493;-55
2021/10/01 07:35:22;;;;;;;4.10;2.77;;;11.80;99.90;;;;;;5034023;28;20385;-58
2021/10/01 08:18:21;;;;;;;6.83;3.30;;;12.20;99.90;;;;;;5034701;28;20448;-60
2021/10/01 08:19:04;;;;;;;3.83;3.10;;;13.70;99.90;;;;;;5034472;28;20413;-57
2021/10/01 08:21:30;;;;;;;7.63;3.50;;;13.70;99.90;;;;;;5033623;28;20458;-55
2021/10/01 08:23:58;;;;;;;4.67;2.97;;;13.60;99.90;;;;;;5032896;28;20472;-57
2021/10/01 08:26:24;;;;;;;6.37;2.70;;;13.70;99.90;;;;;;5034212;28;20409;-57
2021/10/01 08:28:50;;;;;;;4.00;2.97;;;13.70;99.90;;;;;;5033974;28;20774;-54
2021/10/01 08:31:15;;;;;;;4.47;2.43;;;13.90;99.90;;;;;;5028335;28;20470;-56
2021/10/01 08:33:41;;;;;;;5.33;3.03;;;13.70;99.90;;;;;;5033672;28;20171;-57
2021/10/01 08:36:07;;;;;;;6.73;3.17;;;13.70;99.90;;;;;;5033755;28;20173;-56
2021/10/01 08:38:32;;;;;;;5.70;2.33;;;13.80;99.90;;;;;;5033536;28;20178;-56
2021/10/01 08:40:58;;;;;;;5.43;2.73;;;13.90;99.90;;;;;;5034103;28;20739;-57
2021/10/01 08:43:26;;;;;;;6.70;2.70;;;14.10;99.90;;;;;;5033529;28;20167;-57
2021/10/01 08:45:52;;;;;;;4.50;4.00;;;14.20;99.90;;;;;;5033982;28;20712;-58
2021/10/01 08:48:19;;;;;;;5.13;3.43;;;14.40;99.90;;;;;;5033609;28;20489;-57
2021/10/01 08:50:44;;;;;;;6.00;3.70;;;14.40;99.90;;;;;;5029984;28;20174;-56
2021/10/01 08:53:10;;;;;;;4.07;3.33;;;14.50;99.90;;;;;;5033018;28;20437;-57
2021/10/01 08:55:37;;;;;;;3.60;2.67;;;14.60;99.90;;;;;;5033438;28;20636;-56
2021/10/01 08:58:03;;;;;;;3.00;2.60;;;14.80;99.90;;;;;;5034217;28;20653;-55
2021/10/01 09:00:28;;;;;;;4.23;2.20;;;14.90;99.90;;;;;;5033725;28;20968;-55
2021/10/01 09:02:54;;;;;;;3.53;2.40;;;15.10;99.90;;;;;;5027890;28;20512;-56
2021/10/01 09:05:20;;;;;;;2.93;2.40;;;15.20;99.90;;;;;;5028590;28;20545;-58
2021/10/01 09:07:45;;;;;;;2.87;2.57;;;15.30;99.90;;;;;;5030132;28;20180;-58
2021/10/01 09:10:14;;;;;;;2.90;1.93;;;15.30;99.90;;;;;;5033202;28;20168;-55
2021/10/01 09:12:49;;;;;;;2.77;2.20;;;15.40;99.90;;;;;;5033157;28;20256;-58
2021/10/01 09:15:14;;;;;;;3.50;2.33;;;15.30;99.90;;;;;;5033530;28;20408;-56
2021/10/01 09:17:47;;;;;;;6.97;2.40;;;15.40;99.90;;;;;;5033744;28;20885;-57
2021/10/01 09:20:14;;;;;;;2.97;1.83;;;15.50;99.90;;;;;;5033223;28;20189;-57
2021/10/01 09:22:40;;;;;;;6.07;3.50;;;15.60;99.90;;;;;;5032488;28;20432;-58
2021/10/01 09:25:15;;;;;;;7.43;3.10;;;15.70;99.90;;;;;;5032962;28;20931;-55
2021/10/01 09:27:43;;;;;;;4.17;2.30;;;15.80;99.90;;;;;;5031929;28;20413;-55
2021/10/01 09:30:10;;;;;;;2.00;1.80;;;15.90;99.90;;;;;;5034092;28;20413;-51
2021/10/01 09:32:35;;;;;;;2.93;2.17;;;16.00;99.90;;;;;;5037074;28;20956;-56
2021/10/01 09:35:10;;;;;;;2.20;2.00;;;16.20;99.90;;;;;;5037173;28;20440;-55
2021/10/01 09:37:36;;;;;;;5.43;2.33;;;16.40;99.90;;;;;;5037381;28;20170;-54
2021/10/01 09:40:04;;;;;;;5.80;1.80;;;16.50;99.90;;;;;;5037541;28;20451;-58
2021/10/01 09:42:39;;;;;;;3.87;2.20;;;16.80;99.90;;;;;;5036825;28;20249;-57
2021/10/01 09:45:07;;;;;;;8.93;2.47;;;16.80;99.90;;;;;;5037116;28;20471;-57
2021/10/01 09:47:39;;;;;;;3.57;2.07;;;16.70;99.90;;;;;;5036873;28;20946;-56
2021/10/01 09:50:14;;;;;;;2.27;1.57;;;17.00;99.90;;;;;;5036839;28;20758;-58
2021/10/01 09:52:45;;;;;;;2.17;1.60;;;17.30;99.90;;;;;;5036607;28;20478;-57
2021/10/01 09:55:15;;;;;;;3.17;2.23;;;17.50;99.90;;;;;;5037027;28;20395;-57
2021/10/01 09:58:07;;;;;;;2.00;1.50;;;17.50;99.90;;;;;;5034400;28;20424;-57
2021/10/01 10:00:39;;;;;;;2.77;2.57;;;17.50;99.90;;;;;;5037176;28;20910;-55
2021/10/01 10:03:23;;;;;;;3.30;1.70;;;17.70;99.90;;;;;;5036682;28;20502;-58
2021/10/01 10:06:10;;;;;;;2.57;2.00;;;17.80;99.90;;;;;;5035538;28;20464;-58
2021/10/01 10:08:41;;;;;;;3.70;2.00;;;17.80;99.90;;;;;;5036595;28;20383;-57
2021/10/01 10:11:13;;;;;;;4.40;2.50;;;17.80;99.90;;;;;;5036360;28;20930;-58
2021/10/01 10:13:50;;;;;;;2.70;1.70;;;17.90;99.90;;;;;;5052337;22;20477;-56
2021/10/01 10:16:28;;;;;;;7.50;1.67;;;18.00;99.90;;;;;;5035840;28;20430;-55
2021/10/01 10:19:02;;;;;;;8.93;1.90;;;18.10;99.90;;;;;;5048766;28;20408;-55
2021/10/01 10:21:28;;;;;;;3.00;1.67;;;18.20;99.90;;;;;;5054760;28;20986;-60
2021/10/01 10:23:55;;;;;;;1.70;1.43;;;18.30;99.90;;;;;;5052823;28;20777;-55
2021/10/01 10:26:21;;;;;;;5.97;1.77;;;18.40;99.90;;;;;;5055754;28;20400;-57
2021/10/01 10:28:47;;;;;;;1.80;0.97;;;18.50;99.90;;;;;;5056145;28;20402;-57
2021/10/01 10:31:14;;;;;;;2.83;1.60;;;18.70;99.90;;;;;;5055598;28;20212;-57
2021/10/01 10:33:52;;;;;;;4.30;1.60;;;18.70;99.90;;;;;;5053582;28;20441;-56
2021/10/01 10:36:35;;;;;;;2.30;1.63;;;18.80;99.90;;;;;;5056419;28;20404;-58
2021/10/01 10:39:12;;;;;;;3.20;1.60;;;19.00;99.90;;;;;;5055503;28;20433;-54
2021/10/01 10:41:39;;;;;;;2.60;1.80;;;19.00;99.90;;;;;;5054011;28;20445;-53
2021/10/01 10:44:06;;;;;;;2.70;1.50;;;19.10;99.90;;;;;;5055292;28;20425;-57
2021/10/01 10:46:34;;;;;;;1.97;1.40;;;19.10;99.90;;;;;;5055225;28;20933;-56
2021/10/01 10:49:32;;;;;;;1.60;1.47;;;19.30;99.60;;;;;;5053153;28;20466;-55
2021/10/01 10:52:02;;;;;;;2.33;1.30;;;19.30;99.40;;;;;;5025860;28;20429;-56
2021/10/01 10:54:31;;;;;;;3.33;1.23;;;19.40;98.30;;;;;;5023683;28;20409;-56
2021/10/01 10:59:55;;;;;;;1.57;1.10;;;19.60;99.50;;;;;;5053962;28;21000;-57
2021/10/01 11:02:41;;;;;;;2.47;1.50;;;20.10;98.50;;;;;;5055501;28;20468;-57
2021/10/01 11:05:28;;;;;;;5.00;1.70;;;21.20;96.60;;;;;;5055251;28;20409;-55
2021/10/01 11:08:02;;;;;;;2.57;1.27;;;23.50;94.70;;;;;;5053414;28;20447;-55
2021/10/01 11:10:44;;;;;;;2.63;1.10;;;25.00;91.30;;;;;;5055104;28;20451;-55
2021/10/01 11:13:19;;;;;;;3.67;1.00;;;25.50;85.60;;;;;;5054799;28;20445;-54
2021/10/01 11:16:09;;;;;;;1.50;1.20;;;26.00;81.50;;;;;;5069691;28;20412;-50
2021/10/01 11:18:47;;;;;;;1.30;0.90;;;26.50;80.10;;;;;;5053924;28;20826;-57
2021/10/01 11:21:32;;;;;;;2.10;1.00;;;26.80;80.30;;;;;;5054567;28;20437;-55
2021/10/01 11:24:02;;;;;;;1.10;1.00;;;28.20;73.40;;;;;;5054604;28;20429;-57
2021/10/01 11:26:29;;;;;;;2.60;2.40;;;28.10;67.00;;;;;;5054709;28;20397;-56
2021/10/01 11:28:55;;;;;;;1.50;0.90;;;28.80;67.60;;;;;;5053651;28;20417;-54
2021/10/01 11:31:21;;;;;;;1.83;1.00;;;29.80;63.70;;;;;;5054169;28;20409;-52
2021/10/01 11:33:50;;;;;;;2.93;1.03;;;30.10;59.40;;;;;;5054552;28;20198;-56
2021/10/01 11:36:23;;;;;;;1.87;1.10;;;30.70;57.90;;;;;;5053022;28;20185;-57
2021/10/01 11:38:49;;;;;;;1.10;0.80;;;30.20;55.70;;;;;;5054190;28;20386;-57
2021/10/01 11:41:17;;;;;;;1.80;1.20;;;30.10;54.90;;;;;;5054173;28;20443;-55
2021/10/01 11:43:54;;;;;;;1.13;0.80;;;29.70;56.20;;;;;;5054556;28;20190;-56
2021/10/01 11:46:45;;;;;;;2.23;1.40;;;30.30;53.00;;;;;;5054602;28;20424;-57
2021/10/01 11:49:30;;;;;;;1.00;0.80;;;29.80;53.00;;;;;;5054467;28;20393;-57
2021/10/01 11:52:12;;;;;;;2.00;0.80;;;30.50;52.90;;;;;;5052466;28;20453;-55
2021/10/01 11:54:49;;;;;;;2.60;0.80;;;31.80;51.80;;;;;;5053794;28;20393;-56
2021/10/01 11:57:15;;;;;;;1.70;0.90;;;31.40;49.40;;;;;;5053772;28;20401;-53
2021/10/01 11:59:57;;;;;;;2.30;1.20;;;31.50;50.70;;;;;;5023584;28;20820;-58
2021/10/01 12:02:43;;;;;;;1.57;0.90;;;31.30;52.10;;;;;;5034031;28;20191;-57
2021/10/01 12:05:22;;;;;;;2.47;1.20;;;31.60;49.50;;;;;;5034064;28;20390;-57
2021/10/01 12:07:56;;;;;;;1.80;1.30;;;30.90;47.60;;;;;;5033191;28;20410;-56
2021/10/01 12:10:24;;;;;;;2.40;1.20;;;31.00;48.30;;;;;;5034089;28;20448;-57
2021/10/01 12:13:06;;;;;;;1.70;1.03;;;31.90;45.70;;;;;;5047659;28;20868;-54
2021/10/01 12:15:39;;;;;;;1.37;0.80;;;33.10;46.30;;;;;;5053721;28;20447;-57
2021/10/01 12:18:07;;;;;;;1.80;1.00;;;33.50;44.10;;;;;;5053922;28;20389;-57
2021/10/01 12:20:48;;;;;;;1.00;0.83;;;32.00;46.00;;;;;;5053591;28;20449;-56
2021/10/01 12:23:30;;;;;;;1.40;1.23;;;31.60;49.30;;;;;;5052204;28;20417;-57
2021/10/01 12:26:13;;;;;;;1.60;1.00;;;31.50;47.70;;;;;;5053671;28;20381;-57
2021/10/01 12:28:40;;;;;;;3.43;1.40;;;31.60;47.10;;;;;;5053644;28;20386;-57
2021/10/01 12:31:05;;;;;;;2.30;1.00;;;32.60;47.00;;;;;;5052110;28;20413;-56
2021/10/01 12:33:32;;;;;;;2.83;0.97;;;33.00;46.40;;;;;;5053219;28;20524;-56
2021/10/01 12:35:58;;;;;;;1.53;1.30;;;33.30;42.10;;;;;;5053660;28;20166;-56
2021/10/01 12:38:24;;;;;;;1.33;0.83;;;33.70;42.70;;;;;;5051603;28;20789;-56
2021/10/01 12:41:11;;;;;;;1.57;1.13;;;34.30;42.30;;;;;;5053090;28;20437;-58
2021/10/01 12:43:50;;;;;;;1.63;1.10;;;33.30;43.70;;;;;;5053659;28;20425;-57
2021/10/01 12:46:54;;;;;;;1.40;1.10;;;32.90;44.20;;;;;;5053223;28;20396;-58
2021/10/01 12:49:30;;;;;;;1.63;1.00;;;33.70;43.20;;;;;;5053047;28;20420;-57
2021/10/01 12:51:59;;;;;;;1.40;0.80;;;33.00;43.40;;;;;;5051500;28;20416;-58
2021/10/01 12:54:29;;;;;;;1.10;1.00;;;33.70;43.70;;;;;;5022461;28;20836;-56
2021/10/01 12:57:10;;;;;;;2.50;1.40;;;33.70;41.60;;;;;;5013587;28;20816;-58
2021/10/01 12:59:45;;;;;;;2.20;1.40;;;33.80;43.00;;;;;;5037002;28;20409;-56
2021/10/01 13:02:39;;;;;;;1.63;0.97;;;33.00;42.40;;;;;;5052924;28;20435;-56
2021/10/01 13:05:07;;;;;;;1.80;1.10;;;32.80;43.40;;;;;;5050615;28;20929;-56
2021/10/01 13:07:39;;;;;;;1.63;1.50;;;31.50;44.60;;;;;;5052770;28;20455;-56
2021/10/01 13:10:19;;;;;;;2.20;1.10;;;32.10;45.10;;;;;;5053045;28;20389;-56
2021/10/01 13:12:52;;;;;;;1.57;1.10;;;32.80;43.90;;;;;;5051276;28;20567;-57
2021/10/01 13:15:22;;;;;;;1.20;1.10;;;33.00;41.80;;;;;;5052988;28;20741;-56
2021/10/01 13:18:19;;;;;;;2.57;1.30;;;33.10;43.00;;;;;;5052485;28;20404;-57
2021/10/01 13:20:52;;;;;;;1.40;1.30;;;32.90;43.20;;;;;;5052911;28;20537;-56
2021/10/01 13:23:29;;;;;;;1.30;1.00;;;33.20;43.20;;;;;;5052858;28;20425;-57
2021/10/01 13:25:57;;;;;;;1.30;1.20;;;32.60;44.10;;;;;;5052684;28;20396;-57
2021/10/01 13:28:26;;;;;;;2.30;1.40;;;33.30;43.50;;;;;;5052134;28;20406;-56
2021/10/01 13:30:53;;;;;;;1.27;1.17;;;33.40;44.70;;;;;;5051101;28;20421;-58
2021/10/01 13:33:22;;;;;;;1.93;1.50;;;33.30;45.70;;;;;;5052320;28;20987;-58
2021/10/01 13:35:48;;;;;;;3.10;1.63;;;33.60;46.10;;;;;;5052351;28;20440;-57
2021/10/01 13:38:14;;;;;;;6.70;1.73;;;34.40;44.10;;;;;;5050619;28;20413;-58
2021/10/01 13:40:41;;;;;;;2.63;1.67;;;34.60;43.70;;;;;;5052331;28;20804;-57
2021/10/01 13:43:07;;;;;;;3.67;1.77;;;34.50;44.50;;;;;;5052116;28;20191;-58
2021/10/01 13:45:33;;;;;;;1.60;1.50;;;34.00;45.40;;;;;;5051407;28;20428;-58
2021/10/01 13:47:59;;;;;;;1.80;1.70;;;33.40;45.40;;;;;;5051680;28;20203;-57
2021/10/01 13:50:25;;;;;;;1.93;1.60;;;32.90;46.90;;;;;;5051193;28;20189;-56
2021/10/01 13:52:51;;;;;;;2.77;1.90;;;32.80;48.50;;;;;;5052421;28;20804;-58
2021/10/01 13:55:17;;;;;;;3.40;2.83;;;33.40;46.90;;;;;;5052243;28;20547;-57
2021/10/01 13:57:45;;;;;;;1.77;1.57;;;33.30;48.90;;;;;;5052574;28;20252;-57
2021/10/01 14:00:13;;;;;;;1.87;1.70;;;34.10;46.00;;;;;;5052776;28;20483;-58
2021/10/01 14:02:40;;;;;;;1.80;1.70;;;34.30;47.10;;;;;;5051919;28;20421;-59
2021/10/01 14:05:10;;;;;;;3.87;1.60;;;33.70;48.60;;;;;;5052690;28;20839;-59
2021/10/01 14:07:38;;;;;;;3.70;2.87;;;33.80;48.70;;;;;;5050630;28;20511;-56
2021/10/01 14:10:07;;;;;;;9.83;9.13;;;33.60;47.70;;;;;;5051971;28;20416;-54
2021/10/01 14:12:33;;;;;;;3.53;3.23;;;32.80;49.60;;;;;;5052515;28;20984;-55
2021/10/01 14:14:59;;;;;;;3.07;2.47;;;33.00;49.30;;;;;;5050488;28;20504;-56
2021/10/01 14:17:24;;;;;;;2.10;1.90;;;32.80;49.80;;;;;;5054816;28;20181;-55
2021/10/01 14:19:51;;;;;;;2.23;1.93;;;32.40;52.30;;;;;;5055572;28;20182;-56
2021/10/01 14:22:17;;;;;;;5.00;2.70;;;31.10;54.60;;;;;;5055614;28;20177;-58
2021/10/01 14:24:42;;;;;;;2.93;2.67;;;30.00;56.70;;;;;;5055909;28;20423;-57
2021/10/01 14:27:09;;;;;;;3.60;3.30;;;28.90;58.30;;;;;;5056171;28;20890;-56
2021/10/01 14:29:35;;;;;;;3.67;2.80;;;28.20;60.80;;;;;;5054421;28;20228;-55
2021/10/01 14:32:01;;;;;;;2.50;2.30;;;27.80;61.20;;;;;;5055739;28;20513;-57
2021/10/01 14:34:27;;;;;;;2.17;1.93;;;27.10;62.80;;;;;;5055998;28;20410;-57
2021/10/01 14:36:53;;;;;;;3.50;2.80;;;26.70;63.20;;;;;;5055890;28;20948;-55